DAL1997 KSAN-KTUS
Flight info
| Callsign | DAL1997 |
|---|---|
| Flight time | 0h 53m |
| Altitude | 35000 |
| Route | ZZOOO4 GBN DINGO6 |
| Aircraft | A21N/M-SDE2E3FGHIRWXY/LB1 |
Departure
| Time | 2026-04-24 03:39 |
|---|---|
| Airport | San Diego International Airport (KSAN) |
Arrival
| Time | 2026-04-24 04:32 |
|---|---|
| Airport | Tucson International Airport (KTUS) |
| Time | Latitude | Longitude | Altitude | Speed | Heading |
|---|---|---|---|---|---|
| 2026-04-24 03:20 | 32.73454 | -117.20384 | 27 ft | 0 kts | 194° |
| 2026-04-24 03:27 | 32.73461 | -117.20382 | 26 ft | 2 kts | 194° |
| 2026-04-24 03:27 | 32.73486 | -117.20374 | 29 ft | 4 kts | 194° |
| 2026-04-24 03:28 | 32.73505 | -117.20368 | 28 ft | 0 kts | 194° |
| 2026-04-24 03:28 | 32.73519 | -117.20365 | 27 ft | 4 kts | 180° |
| 2026-04-24 03:28 | 32.73555 | -117.20378 | 27 ft | 8 kts | 152° |
| 2026-04-24 03:29 | 32.73589 | -117.20411 | 28 ft | 0 kts | 110° |
| 2026-04-24 03:30 | 32.73588 | -117.20407 | 28 ft | 2 kts | 105° |
| 2026-04-24 03:31 | 32.73584 | -117.20351 | 26 ft | 17 kts | 98° |
| 2026-04-24 03:31 | 32.73549 | -117.20194 | 29 ft | 24 kts | 106° |
| 2026-04-24 03:31 | 32.73491 | -117.19952 | 30 ft | 39 kts | 107° |
| 2026-04-24 03:31 | 32.73416 | -117.19636 | 29 ft | 40 kts | 105° |
| 2026-04-24 03:32 | 32.73336 | -117.19319 | 27 ft | 40 kts | 106° |
| 2026-04-24 03:32 | 32.73262 | -117.19019 | 28 ft | 34 kts | 106° |
| 2026-04-24 03:32 | 32.73198 | -117.18752 | 31 ft | 33 kts | 107° |
| 2026-04-24 03:32 | 32.73136 | -117.18488 | 27 ft | 34 kts | 107° |
| 2026-04-24 03:33 | 32.73079 | -117.18256 | 29 ft | 27 kts | 105° |
| 2026-04-24 03:33 | 32.73026 | -117.18036 | 24 ft | 25 kts | 107° |
| 2026-04-24 03:33 | 32.72982 | -117.17863 | 24 ft | 22 kts | 109° |
| 2026-04-24 03:33 | 32.72942 | -117.17702 | 22 ft | 19 kts | 74° |
| 2026-04-24 03:34 | 32.72950 | -117.17684 | 24 ft | 0 kts | 46° |
| 2026-04-24 03:37 | 32.72955 | -117.17679 | 23 ft | 8 kts | 43° |
| 2026-04-24 03:37 | 32.73026 | -117.17678 | 25 ft | 12 kts | 323° |
| 2026-04-24 03:38 | 32.73077 | -117.17812 | 24 ft | 41 kts | 288° |
| 2026-04-24 03:38 | 32.73229 | -117.18453 | 27 ft | 121 kts | 286° |
| 2026-04-24 03:38 | 32.73527 | -117.19672 | 138 ft | 181 kts | 286° |
| 2026-04-24 03:38 | 32.73905 | -117.21234 | 525 ft | 210 kts | 286° |
| 2026-04-24 03:39 | 32.74331 | -117.22991 | 1134 ft | 229 kts | 286° |
| 2026-04-24 03:39 | 32.74779 | -117.24839 | 2147 ft | 232 kts | 286° |
| 2026-04-24 03:39 | 32.75229 | -117.26699 | 3110 ft | 235 kts | 286° |
| 2026-04-24 03:39 | 32.75677 | -117.28552 | 3999 ft | 237 kts | 285° |
| 2026-04-24 03:40 | 32.76136 | -117.30456 | 4877 ft | 240 kts | 285° |
| 2026-04-24 03:40 | 32.76343 | -117.32427 | 5711 ft | 243 kts | 260° |
| 2026-04-24 03:40 | 32.75583 | -117.34182 | 6509 ft | 248 kts | 224° |
| 2026-04-24 03:40 | 32.74111 | -117.35287 | 7314 ft | 252 kts | 210° |
| 2026-04-24 03:41 | 32.72463 | -117.36035 | 8123 ft | 257 kts | 193° |
| 2026-04-24 03:41 | 32.70657 | -117.36085 | 8959 ft | 263 kts | 178° |
| 2026-04-24 03:41 | 32.68851 | -117.35638 | 9746 ft | 270 kts | 161° |
| 2026-04-24 03:41 | 32.67277 | -117.34370 | 10431 ft | 281 kts | 133° |
| 2026-04-24 03:42 | 32.66395 | -117.32278 | 11063 ft | 290 kts | 101° |
| 2026-04-24 03:42 | 32.66266 | -117.29865 | 11740 ft | 295 kts | 89° |
| 2026-04-24 03:42 | 32.66326 | -117.27440 | 12388 ft | 300 kts | 88° |
| 2026-04-24 03:42 | 32.66398 | -117.24920 | 12884 ft | 313 kts | 88° |
| 2026-04-24 03:43 | 32.66453 | -117.22265 | 13518 ft | 327 kts | 89° |
| 2026-04-24 03:43 | 32.66490 | -117.19523 | 14299 ft | 335 kts | 89° |
| 2026-04-24 03:43 | 32.66518 | -117.16701 | 14910 ft | 349 kts | 89° |
| 2026-04-24 03:43 | 32.66540 | -117.13791 | 15475 ft | 361 kts | 89° |
| 2026-04-24 03:44 | 32.66559 | -117.10773 | 16189 ft | 369 kts | 90° |
| 2026-04-24 03:44 | 32.66576 | -117.07694 | 16958 ft | 375 kts | 90° |
| 2026-04-24 03:44 | 32.66591 | -117.04562 | 17675 ft | 381 kts | 90° |
| 2026-04-24 03:44 | 32.66606 | -117.01436 | 18380 ft | 386 kts | 90° |
| 2026-04-24 03:45 | 32.66619 | -116.98220 | 18995 ft | 391 kts | 90° |
| 2026-04-24 03:45 | 32.66651 | -116.94956 | 19607 ft | 397 kts | 89° |
| 2026-04-24 03:45 | 32.66724 | -116.91661 | 20200 ft | 401 kts | 88° |
| 2026-04-24 03:45 | 32.66804 | -116.88369 | 20774 ft | 406 kts | 88° |
| 2026-04-24 03:46 | 32.66887 | -116.84995 | 21344 ft | 411 kts | 88° |
| 2026-04-24 03:46 | 32.66969 | -116.81575 | 21778 ft | 420 kts | 88° |
| 2026-04-24 03:46 | 32.67052 | -116.78043 | 21964 ft | 435 kts | 88° |
| 2026-04-24 03:46 | 32.67103 | -116.74367 | 21985 ft | 454 kts | 90° |
| 2026-04-24 03:47 | 32.67062 | -116.70536 | 21981 ft | 472 kts | 91° |
| 2026-04-24 03:47 | 32.66996 | -116.66612 | 21979 ft | 488 kts | 91° |
| 2026-04-24 03:47 | 32.66925 | -116.62512 | 22034 ft | 502 kts | 91° |
| 2026-04-24 03:47 | 32.66854 | -116.58346 | 22575 ft | 503 kts | 91° |
| 2026-04-24 03:48 | 32.66784 | -116.54235 | 23144 ft | 504 kts | 91° |
| 2026-04-24 03:48 | 32.66712 | -116.50041 | 23587 ft | 508 kts | 91° |
| 2026-04-24 03:48 | 32.66639 | -116.45840 | 23930 ft | 511 kts | 91° |
| 2026-04-24 03:48 | 32.66663 | -116.41607 | 24331 ft | 511 kts | 84° |
| 2026-04-24 03:49 | 32.67022 | -116.37443 | 25099 ft | 502 kts | 84° |
| 2026-04-24 03:49 | 32.67387 | -116.33407 | 25907 ft | 493 kts | 83° |
| 2026-04-24 03:49 | 32.67763 | -116.29364 | 26523 ft | 491 kts | 83° |
| 2026-04-24 03:49 | 32.68135 | -116.25333 | 26946 ft | 492 kts | 83° |
| 2026-04-24 03:50 | 32.68503 | -116.21294 | 27570 ft | 487 kts | 83° |
| 2026-04-24 03:50 | 32.68858 | -116.17362 | 28260 ft | 481 kts | 84° |
| 2026-04-24 03:50 | 32.69213 | -116.13408 | 28695 ft | 482 kts | 84° |
| 2026-04-24 03:50 | 32.69567 | -116.09441 | 29099 ft | 481 kts | 84° |
| 2026-04-24 03:51 | 32.69918 | -116.05494 | 29738 ft | 476 kts | 84° |
| 2026-04-24 03:51 | 32.70271 | -116.01582 | 30140 ft | 476 kts | 84° |
| 2026-04-24 03:51 | 32.70628 | -115.97720 | 30416 ft | 478 kts | 83° |
| 2026-04-24 03:51 | 32.70994 | -115.93779 | 30714 ft | 479 kts | 84° |
| 2026-04-24 03:52 | 32.71357 | -115.89851 | 31147 ft | 475 kts | 84° |
| 2026-04-24 03:52 | 32.71713 | -115.85985 | 31705 ft | 469 kts | 84° |
| 2026-04-24 03:52 | 32.72067 | -115.82128 | 32075 ft | 468 kts | 84° |
| 2026-04-24 03:52 | 32.72414 | -115.78337 | 32384 ft | 467 kts | 84° |
| 2026-04-24 03:53 | 32.72764 | -115.74490 | 32752 ft | 466 kts | 83° |
| 2026-04-24 03:53 | 32.73114 | -115.70634 | 32854 ft | 471 kts | 84° |
| 2026-04-24 03:53 | 32.73465 | -115.66752 | 32855 ft | 479 kts | 84° |
| 2026-04-24 03:54 | 32.74184 | -115.58767 | 32840 ft | 495 kts | 84° |
| 2026-04-24 03:54 | 32.74892 | -115.50490 | 32839 ft | 510 kts | 86° |
| 2026-04-24 03:55 | 32.75143 | -115.41942 | 32836 ft | 524 kts | 89° |
| 2026-04-24 03:55 | 32.75327 | -115.33197 | 32849 ft | 538 kts | 89° |
| 2026-04-24 03:56 | 32.75526 | -115.24198 | 32851 ft | 544 kts | 89° |
| 2026-04-24 03:56 | 32.75724 | -115.15278 | 32849 ft | 543 kts | 89° |
| 2026-04-24 03:57 | 32.75918 | -115.06268 | 32843 ft | 543 kts | 89° |
| 2026-04-24 03:57 | 32.76105 | -114.97332 | 32843 ft | 543 kts | 89° |
| 2026-04-24 03:58 | 32.76287 | -114.88375 | 32847 ft | 544 kts | 89° |
| 2026-04-24 03:58 | 32.76462 | -114.79374 | 32845 ft | 544 kts | 89° |
| 2026-04-24 03:59 | 32.76632 | -114.70347 | 32841 ft | 545 kts | 89° |
| 2026-04-24 03:59 | 32.76794 | -114.61378 | 32851 ft | 545 kts | 89° |
| 2026-04-24 04:00 | 32.76930 | -114.52357 | 32845 ft | 545 kts | 90° |
| 2026-04-24 04:00 | 32.77053 | -114.43361 | 32852 ft | 546 kts | 90° |
| 2026-04-24 04:01 | 32.77170 | -114.34334 | 32845 ft | 546 kts | 90° |
| 2026-04-24 04:01 | 32.77281 | -114.25351 | 32851 ft | 547 kts | 90° |
| 2026-04-24 04:02 | 32.77386 | -114.16292 | 32852 ft | 547 kts | 90° |
| 2026-04-24 04:02 | 32.77485 | -114.07291 | 32851 ft | 547 kts | 90° |
| 2026-04-24 04:03 | 32.77579 | -113.98243 | 32848 ft | 547 kts | 89° |
| 2026-04-24 04:03 | 32.78657 | -113.89301 | 32880 ft | 546 kts | 79° |
| 2026-04-24 04:04 | 32.79979 | -113.80385 | 32901 ft | 547 kts | 79° |
| 2026-04-24 04:04 | 32.81268 | -113.71493 | 32897 ft | 547 kts | 79° |
| 2026-04-24 04:05 | 32.82054 | -113.62500 | 32896 ft | 547 kts | 93° |
| 2026-04-24 04:05 | 32.80893 | -113.53646 | 32899 ft | 544 kts | 105° |
| 2026-04-24 04:06 | 32.79221 | -113.44850 | 32897 ft | 544 kts | 105° |
| 2026-04-24 04:06 | 32.77530 | -113.36111 | 32897 ft | 544 kts | 105° |
| 2026-04-24 04:07 | 32.75831 | -113.27359 | 32901 ft | 544 kts | 105° |
| 2026-04-24 04:07 | 32.74118 | -113.18561 | 32898 ft | 545 kts | 105° |
| 2026-04-24 04:08 | 32.72410 | -113.09829 | 32900 ft | 546 kts | 105° |
| 2026-04-24 04:08 | 32.70686 | -113.01043 | 32911 ft | 546 kts | 105° |
| 2026-04-24 04:09 | 32.68950 | -112.92235 | 32924 ft | 547 kts | 105° |
| 2026-04-24 04:09 | 32.67218 | -112.83481 | 32927 ft | 547 kts | 105° |
| 2026-04-24 04:10 | 32.65467 | -112.74660 | 32928 ft | 547 kts | 105° |
| 2026-04-24 04:10 | 32.63721 | -112.65903 | 32927 ft | 548 kts | 105° |
| 2026-04-24 04:11 | 32.61068 | -112.52665 | 32860 ft | 547 kts | 105° |
| 2026-04-24 04:11 | 32.60190 | -112.48294 | 32241 ft | 544 kts | 105° |
| 2026-04-24 04:11 | 32.59320 | -112.43978 | 31615 ft | 542 kts | 105° |
| 2026-04-24 04:12 | 32.58443 | -112.39633 | 30915 ft | 541 kts | 105° |
| 2026-04-24 04:12 | 32.57563 | -112.35283 | 30172 ft | 541 kts | 105° |
| 2026-04-24 04:12 | 32.56682 | -112.30937 | 29291 ft | 541 kts | 105° |
| 2026-04-24 04:12 | 32.55813 | -112.26656 | 28520 ft | 539 kts | 105° |
| 2026-04-24 04:13 | 32.54937 | -112.22348 | 27819 ft | 535 kts | 105° |
| 2026-04-24 04:13 | 32.54054 | -112.18016 | 26877 ft | 537 kts | 105° |
| 2026-04-24 04:13 | 32.53185 | -112.13762 | 26055 ft | 536 kts | 105° |
| 2026-04-24 04:13 | 32.52308 | -112.09472 | 25069 ft | 534 kts | 105° |
| 2026-04-24 04:14 | 32.51430 | -112.05185 | 23869 ft | 531 kts | 105° |
| 2026-04-24 04:14 | 32.50565 | -112.00975 | 22538 ft | 529 kts | 105° |
| 2026-04-24 04:14 | 32.49700 | -111.96767 | 21340 ft | 521 kts | 105° |
| 2026-04-24 04:14 | 32.48848 | -111.92632 | 20242 ft | 511 kts | 105° |
| 2026-04-24 04:15 | 32.48011 | -111.88577 | 19188 ft | 501 kts | 105° |
| 2026-04-24 04:15 | 32.47188 | -111.84597 | 18160 ft | 491 kts | 104° |
| 2026-04-24 04:15 | 32.46380 | -111.80696 | 16976 ft | 482 kts | 104° |
| 2026-04-24 04:15 | 32.45589 | -111.76877 | 15938 ft | 472 kts | 105° |
| 2026-04-24 04:16 | 32.44829 | -111.73200 | 15059 ft | 459 kts | 105° |
| 2026-04-24 04:16 | 32.44080 | -111.69570 | 14232 ft | 447 kts | 105° |
| 2026-04-24 04:16 | 32.43348 | -111.66036 | 13206 ft | 438 kts | 105° |
| 2026-04-24 04:16 | 32.42611 | -111.62527 | 11890 ft | 437 kts | 105° |
| 2026-04-24 04:17 | 32.41879 | -111.59048 | 10780 ft | 430 kts | 105° |
| 2026-04-24 04:17 | 32.41163 | -111.55643 | 9737 ft | 421 kts | 105° |
| 2026-04-24 04:17 | 32.40471 | -111.52347 | 8694 ft | 411 kts | 105° |
| 2026-04-24 04:17 | 32.39789 | -111.49100 | 7632 ft | 402 kts | 105° |
| 2026-04-24 04:18 | 32.39113 | -111.45891 | 6850 ft | 399 kts | 105° |
| 2026-04-24 04:18 | 32.38446 | -111.42724 | 6317 ft | 393 kts | 105° |
| 2026-04-24 04:18 | 32.37777 | -111.39646 | 5786 ft | 384 kts | 108° |
| 2026-04-24 04:18 | 32.36600 | -111.36910 | 5481 ft | 362 kts | 129° |
| 2026-04-24 04:19 | 32.34921 | -111.34814 | 5641 ft | 340 kts | 138° |
| 2026-04-24 04:19 | 32.33244 | -111.32978 | 6020 ft | 318 kts | 139° |
| 2026-04-24 04:19 | 32.31680 | -111.31278 | 6158 ft | 293 kts | 139° |
| 2026-04-24 04:19 | 32.30213 | -111.29679 | 6178 ft | 282 kts | 139° |
| 2026-04-24 04:20 | 32.29253 | -111.28632 | 6178 ft | 283 kts | 139° |
| 2026-04-24 04:20 | 32.27231 | -111.26443 | 6183 ft | 309 kts | 139° |
| 2026-04-24 04:20 | 32.25622 | -111.24710 | 6175 ft | 314 kts | 139° |
| 2026-04-24 04:20 | 32.24549 | -111.23554 | 6172 ft | 316 kts | 139° |
| 2026-04-24 04:21 | 32.22823 | -111.21748 | 6176 ft | 346 kts | 143° |
| 2026-04-24 04:21 | 32.20703 | -111.20224 | 6163 ft | 363 kts | 156° |
| 2026-04-24 04:21 | 32.18404 | -111.19039 | 6147 ft | 367 kts | 159° |
| 2026-04-24 04:21 | 32.16037 | -111.17839 | 6171 ft | 368 kts | 156° |
| 2026-04-24 04:22 | 32.13833 | -111.16352 | 6177 ft | 369 kts | 146° |
| 2026-04-24 04:22 | 32.11846 | -111.14427 | 6189 ft | 370 kts | 140° |
| 2026-04-24 04:22 | 32.09924 | -111.12395 | 6195 ft | 370 kts | 139° |
| 2026-04-24 04:22 | 32.08012 | -111.10353 | 6196 ft | 367 kts | 139° |
| 2026-04-24 04:23 | 32.06200 | -111.08420 | 6197 ft | 342 kts | 139° |
| 2026-04-24 04:23 | 32.04494 | -111.06597 | 6191 ft | 318 kts | 139° |
| 2026-04-24 04:23 | 32.02913 | -111.04898 | 6191 ft | 296 kts | 139° |
| 2026-04-24 04:23 | 32.01438 | -111.03308 | 6195 ft | 277 kts | 139° |
| 2026-04-24 04:24 | 32.00078 | -111.01831 | 6191 ft | 260 kts | 139° |
| 2026-04-24 04:24 | 31.98780 | -111.00412 | 6194 ft | 251 kts | 139° |
| 2026-04-24 04:24 | 31.97498 | -110.99019 | 6200 ft | 250 kts | 139° |
| 2026-04-24 04:24 | 31.96217 | -110.97624 | 6196 ft | 251 kts | 139° |
| 2026-04-24 04:25 | 31.94935 | -110.96222 | 6191 ft | 251 kts | 139° |
| 2026-04-24 04:25 | 31.93657 | -110.94825 | 6183 ft | 251 kts | 139° |
| 2026-04-24 04:25 | 31.92392 | -110.93447 | 6182 ft | 251 kts | 139° |
| 2026-04-24 04:25 | 31.91115 | -110.92050 | 6172 ft | 251 kts | 139° |
| 2026-04-24 04:26 | 31.89832 | -110.90641 | 6171 ft | 252 kts | 138° |
| 2026-04-24 04:26 | 31.88736 | -110.89019 | 6160 ft | 255 kts | 120° |
| 2026-04-24 04:26 | 31.88202 | -110.87037 | 6157 ft | 257 kts | 93° |
| 2026-04-24 04:26 | 31.88504 | -110.85023 | 6156 ft | 254 kts | 61° |
| 2026-04-24 04:27 | 31.89624 | -110.83456 | 6166 ft | 250 kts | 39° |
| 2026-04-24 04:27 | 31.90982 | -110.82156 | 6166 ft | 252 kts | 36° |
| 2026-04-24 04:27 | 31.92368 | -110.80882 | 6171 ft | 252 kts | 36° |
| 2026-04-24 04:27 | 31.93735 | -110.79603 | 6174 ft | 254 kts | 36° |
| 2026-04-24 04:28 | 31.95110 | -110.78291 | 6198 ft | 251 kts | 37° |
| 2026-04-24 04:28 | 31.96569 | -110.77230 | 6012 ft | 244 kts | 13° |
| 2026-04-24 04:28 | 31.98171 | -110.77321 | 5766 ft | 225 kts | 334° |
| 2026-04-24 04:28 | 31.99311 | -110.78449 | 5478 ft | 208 kts | 307° |
| 2026-04-24 04:29 | 32.00136 | -110.79749 | 5297 ft | 192 kts | 305° |
| 2026-04-24 04:29 | 32.00924 | -110.80959 | 5070 ft | 180 kts | 307° |
| 2026-04-24 04:29 | 32.01709 | -110.82066 | 4797 ft | 172 kts | 310° |
| 2026-04-24 04:29 | 32.02502 | -110.83107 | 4494 ft | 167 kts | 310° |
| 2026-04-24 04:30 | 32.03291 | -110.84095 | 4223 ft | 166 kts | 311° |
| 2026-04-24 04:30 | 32.04087 | -110.85067 | 3831 ft | 168 kts | 311° |
| 2026-04-24 04:30 | 32.04905 | -110.86047 | 3547 ft | 166 kts | 312° |
| 2026-04-24 04:30 | 32.05722 | -110.87014 | 3516 ft | 167 kts | 313° |
| 2026-04-24 04:31 | 32.06541 | -110.87980 | 3564 ft | 163 kts | 312° |
| 2026-04-24 04:31 | 32.07340 | -110.88919 | 3531 ft | 162 kts | 314° |
| 2026-04-24 04:31 | 32.08119 | -110.89836 | 3512 ft | 159 kts | 314° |
| 2026-04-24 04:31 | 32.08904 | -110.90754 | 3104 ft | 160 kts | 313° |
| 2026-04-24 04:32 | 32.09666 | -110.91654 | 2863 ft | 145 kts | 311° |
| 2026-04-24 04:32 | 32.10346 | -110.92455 | 2668 ft | 129 kts | 312° |
| 2026-04-24 04:32 | 32.10924 | -110.93145 | 2629 ft | 93 kts | 314° |
| 2026-04-24 04:32 | 32.11238 | -110.93511 | 2622 ft | 33 kts | 314° |
| 2026-04-24 04:33 | 32.11401 | -110.93675 | 2616 ft | 27 kts | 353° |
| 2026-04-24 04:33 | 32.11470 | -110.93538 | 2617 ft | 21 kts | 118° |
| 2026-04-24 04:33 | 32.11360 | -110.93403 | 2621 ft | 41 kts | 137° |
| 2026-04-24 04:33 | 32.10956 | -110.92973 | 2630 ft | 115 kts | 136° |
| 2026-04-24 04:34 | 32.10165 | -110.92139 | 2678 ft | 184 kts | 139° |
| 2026-04-24 04:34 | 32.09263 | -110.91050 | 3640 ft | 176 kts | 128° |
| 2026-04-24 04:34 | 32.09025 | -110.89685 | 4364 ft | 188 kts | 66° |
| 2026-04-24 04:34 | 32.09740 | -110.88156 | 4352 ft | 234 kts | 60° |
| 2026-04-24 04:35 | 32.10293 | -110.86251 | 4242 ft | 255 kts | 79° |
| 2026-04-24 04:35 | 32.10749 | -110.84299 | 4059 ft | 234 kts | 47° |
| 2026-04-24 04:35 | 32.12088 | -110.83700 | 3746 ft | 205 kts | 341° |
| 2026-04-24 04:35 | 32.13190 | -110.84680 | 3218 ft | 197 kts | 312° |
| 2026-04-24 04:36 | 32.14204 | -110.85706 | 3002 ft | 185 kts | 319° |
| 2026-04-24 04:36 | 32.15100 | -110.86666 | 2786 ft | 167 kts | 314° |
| 2026-04-24 04:36 | 32.15902 | -110.87541 | 2686 ft | 140 kts | 317° |
| 2026-04-24 04:36 | 32.16581 | -110.88237 | 2661 ft | 139 kts | 315° |
| 2026-04-24 04:37 | 32.17457 | -110.89172 | 2746 ft | 193 kts | 328° |